createdAt,value
2022-09-07T00:00:08.875Z,8.52
2022-09-07T00:05:10.634Z,7.00
2022-09-07T00:10:12.270Z,9.68
2022-09-07T00:15:13.866Z,9.40
2022-09-07T00:20:15.620Z,8.85
2022-09-07T00:25:17.336Z,5.18
2022-09-07T00:30:19.053Z,9.80
2022-09-07T00:35:20.839Z,7.38
2022-09-07T00:40:22.527Z,6.57
2022-09-07T00:45:24.391Z,6.70
2022-09-07T00:50:57.538Z,6.80
2022-09-07T00:55:59.916Z,5.53
2022-09-07T01:01:01.819Z,8.57
2022-09-07T01:06:13.530Z,7.32
2022-09-07T01:11:18.001Z,7.45
2022-09-07T01:16:35.848Z,6.15
2022-09-07T01:22:12.796Z,5.97
2022-09-07T01:27:38.853Z,9.32
2022-09-07T01:32:46.511Z,6.95
2022-09-07T01:37:48.064Z,8.98
2022-09-07T01:43:04.512Z,9.35
2022-09-07T01:48:09.113Z,6.63
2022-09-07T01:53:18.029Z,13.77
2022-09-07T01:58:32.768Z,8.88
2022-09-07T02:04:00.459Z,9.30
2022-09-07T02:09:12.996Z,12.10
2022-09-07T02:14:25.598Z,9.75
2022-09-07T02:19:33.777Z,11.45
2022-09-07T02:24:43.119Z,12.68
2022-09-07T02:29:44.960Z,17.53
2022-09-07T02:34:46.698Z,15.18
2022-09-07T02:39:49.429Z,9.00
2022-09-07T02:44:51.181Z,6.88
2022-09-07T02:50:14.038Z,11.90
2022-09-07T02:55:44.741Z,9.10
2022-09-07T03:01:24.021Z,10.88
2022-09-07T03:06:25.713Z,11.88
2022-09-07T03:11:29.154Z,585.13
2022-09-07T03:16:30.838Z,181.43
2022-09-07T03:21:32.666Z,22.20
2022-09-07T03:26:39.009Z,18.83
2022-09-07T03:31:40.935Z,27.67
2022-09-07T03:36:43.165Z,77.97
2022-09-07T03:41:44.800Z,8.77
2022-09-07T03:46:46.578Z,11.07
2022-09-07T03:51:48.424Z,12.60
2022-09-07T03:56:50.108Z,12.05
2022-09-07T04:01:52.065Z,12.60
2022-09-07T04:06:53.814Z,286.52
2022-09-07T04:11:55.515Z,128.70
2022-09-07T04:16:57.454Z,15.40
2022-09-07T04:21:59.208Z,71.50
2022-09-07T04:27:02.146Z,114.97
2022-09-07T04:32:03.849Z,73.18
2022-09-07T04:37:05.521Z,160.70
2022-09-07T04:42:07.253Z,522.35
2022-09-07T04:47:09.396Z,700.88
2022-09-07T04:52:11.033Z,399.88
2022-09-07T04:57:12.685Z,687.25
2022-09-07T05:02:14.428Z,655.80
2022-09-07T05:07:16.197Z,798.17
2022-09-07T05:12:17.906Z,669.03
2022-09-07T05:17:19.829Z,438.88
2022-09-07T05:22:22.411Z,646.72
2022-09-07T05:27:24.175Z,679.78
2022-09-07T05:32:25.934Z,524.45
2022-09-07T05:37:27.591Z,635.00
2022-09-07T05:42:29.241Z,490.90
2022-09-07T05:47:31.276Z,289.23
2022-09-07T05:52:33.353Z,852.83
2022-09-07T05:57:35.049Z,685.63
2022-09-07T06:02:39.809Z,453.23
2022-09-07T06:07:41.961Z,308.23
2022-09-07T06:12:48.991Z,473.95
2022-09-07T06:17:51.186Z,311.85
2022-09-07T06:22:52.931Z,159.38
2022-09-07T06:27:54.572Z,148.57
2022-09-07T06:32:56.199Z,24.88
2022-09-07T06:37:58.277Z,36.38
2022-09-07T06:42:59.985Z,61.80
2022-09-07T06:48:01.657Z,22.35
2022-09-07T06:58:25.951Z,70.53
2022-09-07T07:03:28.592Z,39.85
2022-09-07T07:08:30.850Z,16.30
2022-09-07T07:13:32.574Z,87.35
2022-09-07T07:18:35.106Z,155.82
2022-09-07T07:23:37.488Z,17.23
2022-09-07T07:34:05.381Z,11.52
2022-09-07T07:39:07.171Z,9.30
2022-09-07T07:44:09.454Z,11.25
2022-09-07T07:49:11.048Z,9.85
2022-09-07T07:54:12.692Z,12.00
2022-09-07T07:59:15.890Z,9.52
2022-09-07T08:04:18.069Z,8.55
2022-09-07T08:09:19.759Z,8.18
2022-09-07T08:14:22.294Z,7.57
2022-09-07T08:19:24.205Z,6.40
2022-09-07T08:24:26.603Z,7.18
2022-09-07T08:29:32.639Z,6.35
2022-09-07T08:34:37.317Z,9.05
2022-09-07T08:39:39.009Z,8.20
2022-09-07T08:44:51.113Z,7.68
2022-09-07T08:50:10.080Z,5.93
2022-09-07T08:55:21.716Z,4.78
2022-09-07T09:00:23.357Z,6.07
2022-09-07T09:05:28.401Z,6.07
2022-09-07T09:10:41.832Z,8.63
2022-09-07T09:16:05.506Z,6.45
2022-09-07T09:21:14.544Z,5.55
2022-09-07T09:26:26.245Z,5.22
2022-09-07T09:31:36.894Z,7.53
2022-09-07T09:36:44.640Z,5.47
2022-09-07T09:41:47.555Z,3.65
2022-09-07T09:52:29.824Z,4.88
2022-09-07T10:08:58.434Z,5.72
2022-09-07T10:14:00.614Z,4.85
2022-09-07T10:19:03.348Z,6.68
2022-09-07T10:24:05.125Z,5.57
2022-09-07T10:29:08.730Z,6.85
2022-09-07T10:34:33.583Z,8.10
2022-09-07T10:39:39.750Z,5.05
2022-09-07T10:45:05.600Z,7.18
2022-09-07T10:50:30.233Z,5.80
2022-09-07T10:55:36.623Z,4.45
2022-09-07T11:01:02.570Z,5.45
2022-09-07T11:06:23.229Z,7.20
2022-09-07T11:16:58.541Z,4.40
2022-09-07T11:22:16.180Z,6.13
2022-09-07T11:27:34.313Z,4.72
2022-09-07T11:32:38.617Z,5.45
2022-09-07T11:37:46.601Z,6.00
2022-09-07T11:42:59.878Z,4.70
2022-09-07T11:48:21.941Z,6.65
2022-09-07T11:53:29.262Z,4.60
2022-09-07T11:58:49.134Z,3.63
2022-09-07T12:04:14.628Z,6.40
2022-09-07T12:09:49.627Z,5.57
2022-09-07T12:15:19.741Z,5.97
2022-09-07T12:20:28.274Z,4.70
2022-09-07T12:25:31.041Z,5.47
2022-09-07T12:30:36.771Z,5.25
2022-09-07T12:35:43.872Z,3.70
2022-09-07T12:40:59.579Z,5.82
2022-09-07T12:46:02.288Z,5.28
2022-09-07T13:02:46.116Z,3.38
2022-09-07T13:08:09.894Z,2.72
2022-09-07T13:13:14.649Z,2.97
2022-09-07T13:18:28.737Z,3.85
2022-09-07T13:23:31.392Z,3.95
2022-09-07T13:29:03.164Z,3.63
2022-09-07T13:34:38.879Z,4.10
2022-09-07T13:39:47.487Z,3.55
2022-09-07T13:44:55.696Z,3.40
2022-09-07T13:50:22.915Z,5.80
2022-09-07T13:55:35.797Z,3.10
2022-09-07T14:00:53.041Z,3.80
2022-09-07T14:06:15.044Z,3.92
2022-09-07T14:11:23.553Z,4.75
2022-09-07T14:16:26.718Z,5.75
2022-09-07T14:21:28.488Z,3.00
2022-09-07T14:26:36.399Z,4.68
2022-09-07T14:31:46.748Z,3.83
2022-09-07T14:36:50.727Z,3.03
2022-09-07T14:41:57.690Z,2.15
2022-09-07T14:47:08.713Z,3.95
2022-09-07T14:58:33.222Z,2.95
2022-09-07T15:03:41.179Z,3.30
2022-09-07T15:08:47.276Z,2.50
2022-09-07T15:13:58.132Z,3.30
2022-09-07T15:19:16.141Z,4.63
2022-09-07T15:24:17.796Z,3.42
2022-09-07T15:29:21.129Z,2.92
2022-09-07T15:34:32.454Z,3.53
2022-09-07T15:39:36.116Z,4.95
2022-09-07T15:44:38.146Z,2.90
2022-09-07T15:49:47.466Z,2.92
2022-09-07T15:54:51.159Z,5.35
2022-09-07T15:59:53.005Z,2.85
2022-09-07T16:05:04.778Z,3.42
2022-09-07T16:10:07.468Z,2.40
2022-09-07T16:15:12.646Z,2.33
2022-09-07T16:20:14.618Z,3.40
2022-09-07T16:25:16.374Z,5.25
2022-09-07T16:30:19.138Z,2.67
2022-09-07T16:35:20.950Z,2.70
2022-09-07T16:40:25.623Z,6.15
2022-09-07T16:50:58.920Z,4.22
2022-09-07T16:56:06.075Z,3.30
2022-09-07T17:01:15.171Z,2.55
2022-09-07T17:06:18.493Z,2.75
2022-09-07T17:11:24.162Z,3.25
2022-09-07T17:16:32.422Z,3.67
2022-09-07T17:21:39.262Z,1.67
2022-09-07T17:26:42.184Z,2.97
2022-09-07T17:37:11.249Z,6.20
2022-09-07T17:42:14.129Z,4.28
2022-09-07T17:47:15.950Z,5.30
2022-09-07T17:52:17.988Z,3.88
2022-09-07T17:57:20.684Z,3.60
2022-09-07T18:02:28.616Z,5.15
2022-09-07T18:07:32.884Z,3.90
2022-09-07T18:12:35.893Z,6.00
2022-09-07T18:17:42.491Z,9.32
2022-09-07T18:22:44.854Z,5.75
2022-09-07T18:29:03.093Z,3.90
2022-09-07T18:33:09.559Z,7.63
2022-09-07T18:38:11.841Z,3.45
2022-09-07T18:43:13.546Z,5.47
2022-09-07T18:48:15.253Z,3.90
2022-09-07T18:53:17.083Z,7.47
2022-09-07T18:58:19.005Z,5.05
2022-09-07T19:03:21.466Z,2.40
2022-09-07T19:08:23.157Z,6.20
2022-09-07T19:13:24.865Z,6.18
2022-09-07T19:18:26.530Z,3.42
2022-09-07T19:23:28.193Z,4.25
2022-09-07T19:28:30.399Z,3.55
2022-09-07T19:33:37.893Z,5.75
2022-09-07T19:38:39.933Z,3.40
2022-09-07T19:43:41.683Z,3.42
2022-09-07T19:48:44.383Z,4.45
2022-09-07T19:53:47.182Z,5.18
2022-09-07T19:58:49.834Z,3.75
2022-09-07T20:04:25.989Z,4.47
2022-09-07T20:09:27.780Z,3.25
2022-09-07T20:14:29.539Z,3.15
2022-09-07T20:19:31.274Z,3.67
2022-09-07T20:24:34.547Z,5.20
2022-09-07T20:29:36.289Z,4.28
2022-09-07T20:34:38.009Z,3.38
2022-09-07T20:40:14.475Z,3.42
2022-09-07T20:45:16.347Z,4.53
2022-09-07T20:50:18.064Z,3.90
2022-09-07T20:55:20.781Z,3.47
2022-09-07T21:00:23.145Z,4.32
2022-09-07T21:05:24.916Z,2.35
2022-09-07T21:10:27.068Z,4.22
2022-09-07T21:15:29.431Z,3.95
2022-09-07T21:20:32.025Z,5.78
2022-09-07T21:25:33.764Z,5.07
2022-09-07T21:30:35.451Z,5.85
2022-09-07T21:35:37.102Z,6.32
2022-09-07T21:40:41.178Z,4.82
2022-09-07T21:45:42.889Z,4.28
2022-09-07T21:50:46.848Z,6.25
2022-09-07T21:55:59.429Z,4.93
2022-09-07T22:01:11.052Z,7.40
2022-09-07T22:06:13.501Z,5.30
2022-09-07T22:17:46.215Z,3.00
2022-09-07T22:22:48.287Z,4.38
2022-09-07T22:27:50.164Z,5.72
2022-09-07T22:32:52.005Z,3.42
2022-09-07T22:37:53.665Z,7.97
2022-09-07T22:42:55.303Z,4.55
2022-09-07T22:47:57.465Z,9.23
2022-09-07T22:52:59.257Z,3.70
2022-09-07T22:58:00.940Z,4.47
2022-09-07T23:03:03.936Z,6.25
2022-09-07T23:08:06.026Z,5.53
2022-09-07T23:13:09.150Z,3.70
2022-09-07T23:18:19.475Z,2.92
2022-09-07T23:23:21.135Z,7.00
2022-09-07T23:28:22.864Z,7.30
2022-09-07T23:33:26.289Z,3.70
2022-09-07T23:38:28.654Z,5.07
2022-09-07T23:43:31.487Z,4.28
2022-09-07T23:48:33.202Z,4.38
2022-09-07T23:53:35.125Z,4.93
2022-09-07T23:58:36.892Z,3.33
